Time;durP1;ratioP1;P1;durP2;ratioP2;P2;SDS_P1;SDS_P2;PMS_P1;PMS_P2;Temp;Humidity;BMP_temperature;BMP_pressure;BME280_temperature;BME280_humidity;BME280_pressure;Samples;Min_cycle;Max_cycle;Signal;HPM_P1;HPM_P2
2023/01/25 00:01:53;;;;;;;24.67;13.77;;;4.10;99.90;;;;;;5072208;28;20481;-66
2023/01/25 00:04:20;;;;;;;21.92;13.27;;;4.10;99.90;;;;;;5075241;28;20029;-67
2023/01/25 00:06:46;;;;;;;28.17;15.82;;;4.10;99.90;;;;;;5072094;28;20472;-66
2023/01/25 00:09:12;;;;;;;25.27;15.65;;;4.10;99.90;;;;;;5071982;28;20033;-66
2023/01/25 00:11:38;;;;;;;22.67;14.07;;;4.10;99.90;;;;;;5071741;28;20099;-67
2023/01/25 00:14:05;;;;;;;23.23;15.00;;;4.10;99.90;;;;;;5073145;28;20075;-66
2023/01/25 00:16:31;;;;;;;21.63;13.93;;;4.10;99.90;;;;;;5072491;28;20021;-66
2023/01/25 00:18:56;;;;;;;21.70;13.18;;;4.10;99.90;;;;;;5070902;28;20036;-66
2023/01/25 00:21:24;;;;;;;22.08;13.45;;;4.10;99.90;;;;;;5072102;28;20104;-66
2023/01/25 00:23:50;;;;;;;24.00;14.30;;;4.10;99.90;;;;;;5071556;28;20056;-66
2023/01/25 00:26:16;;;;;;;27.80;14.10;;;4.10;99.90;;;;;;5071594;28;20036;-68
2023/01/25 00:28:42;;;;;;;22.30;13.63;;;4.10;99.90;;;;;;5071654;28;20462;-65
2023/01/25 00:31:15;;;;;;;23.25;13.60;;;4.10;99.90;;;;;;5071977;28;20025;-66
2023/01/25 00:33:49;;;;;;;26.45;14.93;;;4.10;99.90;;;;;;5071611;28;20115;-66
2023/01/25 00:36:40;;;;;;;25.10;14.85;;;4.10;99.90;;;;;;5072039;28;20029;-67
2023/01/25 00:39:11;;;;;;;25.48;14.88;;;4.10;99.90;;;;;;5068731;28;20444;-66
2023/01/25 00:41:37;;;;;;;24.67;13.88;;;4.10;99.90;;;;;;5072050;28;20017;-66
2023/01/25 00:44:03;;;;;;;23.77;14.38;;;4.10;99.90;;;;;;5075336;28;20487;-66
2023/01/25 00:46:28;;;;;;;22.13;13.95;;;4.10;99.90;;;;;;5075424;28;20405;-66
2023/01/25 00:48:54;;;;;;;23.45;14.80;;;4.10;99.90;;;;;;5074356;28;20044;-66
2023/01/25 00:51:21;;;;;;;21.67;13.70;;;4.10;99.90;;;;;;5074817;28;20027;-66
2023/01/25 00:53:47;;;;;;;22.13;13.98;;;4.20;99.90;;;;;;5074635;28;20029;-66
2023/01/25 00:56:13;;;;;;;22.90;13.73;;;4.20;99.90;;;;;;5075228;28;20024;-67
2023/01/25 00:58:40;;;;;;;19.70;12.60;;;4.20;99.90;;;;;;5074686;28;20380;-68
2023/01/25 01:01:06;;;;;;;19.65;12.43;;;4.10;99.90;;;;;;5074738;28;20469;-67
2023/01/25 01:03:31;;;;;;;21.65;13.00;;;4.20;99.90;;;;;;5075161;28;20093;-67
2023/01/25 01:06:00;;;;;;;21.27;12.55;;;4.10;99.90;;;;;;5074259;28;20060;-67
2023/01/25 01:08:26;;;;;;;20.60;13.13;;;4.20;99.90;;;;;;5075013;28;20032;-67
2023/01/25 01:10:56;;;;;;;20.55;13.10;;;4.20;99.90;;;;;;5073337;28;20475;-67
2023/01/25 01:13:22;;;;;;;22.08;13.07;;;4.20;99.90;;;;;;5074863;28;20048;-67
2023/01/25 01:15:48;;;;;;;20.10;12.57;;;4.10;99.90;;;;;;5074481;28;20056;-67
2023/01/25 01:18:13;;;;;;;21.73;12.93;;;4.10;99.90;;;;;;5074522;28;20125;-68
2023/01/25 01:20:39;;;;;;;21.30;12.65;;;4.10;99.90;;;;;;5074422;28;20028;-68
2023/01/25 01:23:04;;;;;;;20.77;11.88;;;4.10;99.90;;;;;;5073796;28;20024;-68
2023/01/25 01:25:31;;;;;;;18.35;11.48;;;4.10;99.90;;;;;;5074315;28;20477;-67
2023/01/25 01:27:57;;;;;;;19.75;12.23;;;4.10;99.90;;;;;;5074229;28;20341;-66
2023/01/25 01:30:22;;;;;;;19.33;12.43;;;4.10;99.90;;;;;;5074264;28;20088;-66
2023/01/25 01:32:50;;;;;;;21.50;13.88;;;4.10;99.90;;;;;;5073562;28;20028;-66
2023/01/25 01:35:15;;;;;;;17.42;12.23;;;4.10;99.90;;;;;;5073919;28;20036;-66
2023/01/25 01:37:41;;;;;;;19.58;11.80;;;4.10;99.90;;;;;;5073235;28;20025;-66
2023/01/25 01:40:12;;;;;;;20.95;12.48;;;4.10;99.90;;;;;;5073394;28;20045;-65
2023/01/25 01:43:14;;;;;;;21.67;12.73;;;4.10;99.90;;;;;;5072920;28;20496;-67
2023/01/25 01:45:50;;;;;;;20.33;13.07;;;4.10;99.90;;;;;;5073006;28;20385;-68
2023/01/25 01:48:54;;;;;;;19.20;13.07;;;4.10;99.90;;;;;;5073438;28;20028;-67
2023/01/25 01:51:20;;;;;;;23.15;14.07;;;4.10;99.90;;;;;;5071712;28;20068;-67
2023/01/25 01:53:57;;;;;;;23.20;14.68;;;4.00;99.90;;;;;;5071791;28;20063;-68
2023/01/25 01:56:29;;;;;;;24.55;14.45;;;4.00;99.90;;;;;;5073721;28;20123;-69
2023/01/25 01:58:57;;;;;;;24.00;14.93;;;4.00;99.90;;;;;;5072830;28;20078;-67
2023/01/25 02:01:23;;;;;;;24.15;15.20;;;4.00;99.90;;;;;;5072431;28;20056;-69
2023/01/25 02:03:50;;;;;;;27.70;15.68;;;4.00;99.90;;;;;;5088434;28;20024;-67
2023/01/25 02:06:32;;;;;;;25.73;15.18;;;4.00;99.90;;;;;;5093118;28;20032;-67
2023/01/25 02:08:59;;;;;;;24.45;14.50;;;4.00;99.90;;;;;;5092799;28;20024;-67
2023/01/25 02:11:26;;;;;;;24.70;14.18;;;4.10;99.90;;;;;;5093382;28;20025;-67
2023/01/25 02:13:54;;;;;;;22.77;14.80;;;4.00;99.90;;;;;;5092798;28;20092;-67
2023/01/25 02:16:26;;;;;;;25.30;14.63;;;4.00;99.90;;;;;;5093617;28;20456;-67
2023/01/25 02:18:54;;;;;;;23.45;13.93;;;4.00;99.90;;;;;;5093466;28;20070;-67
2023/01/25 02:21:22;;;;;;;24.35;15.43;;;3.90;99.90;;;;;;5093625;28;20043;-67
2023/01/25 02:23:58;;;;;;;21.48;14.32;;;4.00;99.90;;;;;;5093071;28;20020;-67
2023/01/25 02:26:24;;;;;;;25.00;15.73;;;3.90;99.90;;;;;;5093621;28;20174;-67
2023/01/25 02:28:55;;;;;;;25.85;14.88;;;3.90;99.90;;;;;;5092974;28;20076;-67
2023/01/25 02:31:20;;;;;;;22.90;15.32;;;3.90;99.90;;;;;;5093104;28;20028;-67
2023/01/25 02:33:46;;;;;;;25.55;15.35;;;3.90;99.90;;;;;;5092996;28;20031;-67
2023/01/25 02:36:21;;;;;;;24.98;16.23;;;3.90;99.90;;;;;;5093503;28;20032;-67
2023/01/25 02:39:00;;;;;;;23.42;14.52;;;3.90;99.90;;;;;;5092943;28;20146;-67
2023/01/25 02:41:37;;;;;;;26.50;14.52;;;3.90;99.90;;;;;;5092844;28;20052;-69
2023/01/25 02:44:07;;;;;;;23.00;14.02;;;3.90;99.90;;;;;;5092168;28;20032;-65
2023/01/25 02:46:36;;;;;;;23.37;14.70;;;4.00;99.90;;;;;;5083103;28;20028;-66
2023/01/25 02:49:04;;;;;;;22.80;14.95;;;4.00;99.90;;;;;;5070911;28;20035;-65
2023/01/25 02:51:32;;;;;;;25.27;15.15;;;4.00;99.90;;;;;;5072188;28;20021;-68
2023/01/25 02:53:59;;;;;;;22.77;13.68;;;3.90;99.90;;;;;;5071816;28;20020;-67
2023/01/25 02:56:25;;;;;;;23.88;13.73;;;4.00;99.90;;;;;;5071797;28;20405;-67
2023/01/25 02:58:52;;;;;;;25.77;14.95;;;4.00;99.90;;;;;;5071675;28;20131;-69
2023/01/25 03:01:17;;;;;;;23.48;14.38;;;3.90;99.90;;;;;;5071799;28;20111;-67
2023/01/25 03:03:43;;;;;;;24.38;14.18;;;3.90;99.90;;;;;;5071064;28;20075;-67
2023/01/25 03:06:09;;;;;;;26.17;14.75;;;3.90;99.90;;;;;;5069200;28;20397;-67
2023/01/25 03:08:35;;;;;;;23.80;15.07;;;3.90;99.90;;;;;;5071798;28;20053;-67
2023/01/25 03:11:02;;;;;;;22.80;13.77;;;3.80;99.90;;;;;;5071938;28;20029;-67
2023/01/25 03:13:28;;;;;;;24.10;14.95;;;3.80;99.90;;;;;;5071888;28;20368;-67
2023/01/25 03:16:03;;;;;;;26.15;15.27;;;3.90;99.90;;;;;;5071290;28;20035;-67
2023/01/25 03:18:28;;;;;;;25.30;14.35;;;3.80;99.90;;;;;;5070080;28;20032;-67
2023/01/25 03:20:54;;;;;;;24.95;13.95;;;3.90;99.90;;;;;;5071856;28;20024;-67
2023/01/25 03:23:20;;;;;;;24.27;14.77;;;3.90;99.90;;;;;;5072369;28;20029;-67
2023/01/25 03:25:46;;;;;;;25.38;14.65;;;3.80;99.90;;;;;;5072442;28;20028;-67
2023/01/25 03:28:12;;;;;;;24.67;14.02;;;3.80;99.90;;;;;;5072763;28;20036;-67
2023/01/25 03:30:37;;;;;;;23.13;14.50;;;3.80;99.90;;;;;;5072759;28;20048;-67
2023/01/25 03:33:03;;;;;;;25.70;15.02;;;3.80;99.90;;;;;;5072145;28;20070;-67
2023/01/25 03:35:29;;;;;;;23.80;14.68;;;3.80;99.90;;;;;;5072214;28;20051;-66
2023/01/25 03:37:55;;;;;;;23.60;15.52;;;3.80;99.90;;;;;;5071908;28;20023;-67
2023/01/25 03:40:21;;;;;;;26.13;15.73;;;3.80;99.90;;;;;;5071822;28;20056;-66
2023/01/25 03:42:46;;;;;;;29.35;16.55;;;3.80;99.90;;;;;;5072472;28;20067;-66
2023/01/25 03:45:13;;;;;;;26.30;14.80;;;3.80;99.90;;;;;;5072521;28;20028;-66
2023/01/25 03:47:40;;;;;;;26.00;15.15;;;3.90;99.90;;;;;;5072296;28;20025;-66
2023/01/25 03:50:06;;;;;;;24.52;14.90;;;3.90;99.90;;;;;;5071276;28;20029;-66
2023/01/25 03:52:37;;;;;;;23.98;15.52;;;3.90;99.90;;;;;;5072407;28;20480;-66
2023/01/25 03:55:03;;;;;;;26.33;15.52;;;3.90;99.90;;;;;;5072030;28;20109;-66
2023/01/25 03:57:29;;;;;;;22.92;14.35;;;3.90;99.90;;;;;;5072474;28;20037;-65
2023/01/25 03:59:55;;;;;;;29.10;15.65;;;3.90;99.90;;;;;;5072326;28;20028;-65
2023/01/25 04:02:21;;;;;;;25.02;14.85;;;3.90;99.90;;;;;;5072498;28;20389;-66
2023/01/25 04:04:46;;;;;;;24.90;15.15;;;3.90;99.90;;;;;;5071949;28;20089;-66
2023/01/25 04:07:12;;;;;;;26.38;15.63;;;3.90;99.90;;;;;;5073459;28;20041;-66
2023/01/25 04:09:38;;;;;;;24.63;15.43;;;3.90;99.90;;;;;;5087892;28;20028;-65
2023/01/25 04:12:04;;;;;;;24.00;14.57;;;3.90;99.90;;;;;;5095263;28;20122;-65
2023/01/25 04:14:29;;;;;;;24.55;14.73;;;3.90;99.90;;;;;;5092562;28;20103;-65
2023/01/25 04:16:55;;;;;;;23.75;15.02;;;3.90;99.90;;;;;;5092229;28;20027;-66
2023/01/25 04:19:20;;;;;;;27.33;15.30;;;3.80;99.90;;;;;;5096295;28;20035;-67
2023/01/25 04:21:46;;;;;;;24.17;16.23;;;3.80;99.90;;;;;;5096286;28;20020;-71
2023/01/25 04:24:12;;;;;;;27.20;15.57;;;3.80;99.90;;;;;;5096023;28;20111;-66
2023/01/25 04:26:37;;;;;;;26.98;16.67;;;3.80;99.90;;;;;;5096282;28;20032;-66
2023/01/25 04:29:03;;;;;;;28.73;16.65;;;3.80;99.90;;;;;;5095830;28;20028;-66
2023/01/25 04:31:29;;;;;;;33.03;17.52;;;3.80;99.90;;;;;;5096586;28;20028;-66
2023/01/25 04:33:54;;;;;;;28.02;16.95;;;3.80;99.90;;;;;;5095452;28;20117;-65
2023/01/25 04:36:20;;;;;;;27.20;16.60;;;3.80;99.90;;;;;;5096078;28;20028;-66
2023/01/25 04:38:46;;;;;;;27.42;16.50;;;3.90;99.90;;;;;;5096465;28;20080;-66
2023/01/25 04:41:11;;;;;;;28.60;17.80;;;3.80;99.90;;;;;;5095890;28;20052;-66
2023/01/25 04:43:37;;;;;;;28.25;18.65;;;3.80;99.90;;;;;;5096147;28;20032;-67
2023/01/25 04:46:03;;;;;;;31.15;17.63;;;3.80;99.90;;;;;;5095464;28;20056;-66
2023/01/25 04:48:29;;;;;;;28.80;18.23;;;3.90;99.90;;;;;;5094814;28;20032;-67
2023/01/25 04:50:55;;;;;;;29.55;17.42;;;3.80;99.90;;;;;;5095190;28;20017;-66
2023/01/25 04:53:20;;;;;;;29.02;17.63;;;3.80;99.90;;;;;;5095713;28;20044;-66
2023/01/25 04:55:47;;;;;;;30.02;17.65;;;3.80;99.90;;;;;;5078943;28;20039;-66
2023/01/25 04:58:13;;;;;;;31.00;17.70;;;3.90;99.90;;;;;;5074934;28;20025;-66
2023/01/25 05:00:38;;;;;;;29.67;17.85;;;3.90;99.90;;;;;;5075218;28;20025;-66
2023/01/25 05:03:04;;;;;;;32.05;18.90;;;3.80;99.90;;;;;;5074997;28;20366;-67
2023/01/25 05:05:30;;;;;;;29.10;17.90;;;3.80;99.90;;;;;;5073925;28;20025;-66
2023/01/25 05:07:55;;;;;;;29.30;16.92;;;3.80;99.90;;;;;;5074802;28;20082;-67
2023/01/25 05:10:22;;;;;;;28.98;18.25;;;3.70;99.90;;;;;;5075256;28;20342;-67
2023/01/25 05:12:47;;;;;;;30.48;17.27;;;3.80;99.90;;;;;;5075108;28;20029;-67
2023/01/25 05:15:13;;;;;;;30.65;18.40;;;3.70;99.90;;;;;;5074668;28;20461;-65
2023/01/25 05:17:39;;;;;;;29.20;18.30;;;3.70;99.90;;;;;;5074985;28;20028;-66
2023/01/25 05:20:05;;;;;;;31.80;18.23;;;3.70;99.90;;;;;;5074333;28;20051;-66
2023/01/25 05:22:31;;;;;;;33.13;20.50;;;3.70;99.90;;;;;;5074534;28;20033;-67
2023/01/25 05:24:57;;;;;;;32.05;18.80;;;3.70;99.90;;;;;;5074518;28;20040;-67
2023/01/25 05:27:23;;;;;;;30.25;17.40;;;3.70;99.90;;;;;;5074707;28;20024;-67
2023/01/25 05:29:49;;;;;;;30.27;18.42;;;3.80;99.90;;;;;;5074822;28;20046;-67
2023/01/25 05:32:20;;;;;;;35.75;20.92;;;3.80;99.90;;;;;;5074292;28;20029;-66
2023/01/25 05:34:46;;;;;;;30.05;18.10;;;3.70;99.90;;;;;;5075037;28;20032;-67
2023/01/25 05:37:17;;;;;;;30.17;18.38;;;3.80;99.90;;;;;;5074360;28;20135;-67
2023/01/25 05:39:43;;;;;;;;;;;3.70;99.90;;;;;;5074937;28;20052;-67
2023/01/25 05:42:14;;;;;;;26.52;16.13;;;3.70;99.90;;;;;;5074024;28;19999;-66
2023/01/25 05:44:39;;;;;;;27.85;16.73;;;3.70;99.90;;;;;;5074327;28;20477;-66
2023/01/25 05:47:06;;;;;;;33.03;17.65;;;3.70;99.90;;;;;;5073558;28;20043;-67
2023/01/25 05:49:31;;;;;;;29.13;18.10;;;3.70;99.90;;;;;;5074085;28;20040;-67
2023/01/25 05:51:57;;;;;;;31.67;18.27;;;3.70;99.90;;;;;;5073886;28;20103;-66
2023/01/25 05:54:23;;;;;;;28.58;16.85;;;3.70;99.90;;;;;;5073916;28;20067;-66
2023/01/25 05:56:49;;;;;;;25.23;16.17;;;3.70;99.90;;;;;;5074092;28;20029;-65
2023/01/25 05:59:16;;;;;;;27.30;15.55;;;3.80;99.90;;;;;;5073683;28;20086;-65
2023/01/25 06:01:42;;;;;;;28.23;15.73;;;3.80;99.90;;;;;;5074146;28;20116;-66
2023/01/25 06:04:11;;;;;;;33.03;17.95;;;3.70;99.90;;;;;;5079985;28;20496;-66
2023/01/25 06:06:37;;;;;;;29.00;16.30;;;3.70;99.90;;;;;;5093959;28;20385;-66
2023/01/25 06:09:02;;;;;;;28.02;17.00;;;3.70;99.90;;;;;;5093847;28;20024;-66
2023/01/25 06:11:28;;;;;;;26.15;16.63;;;3.70;99.90;;;;;;5094283;28;20031;-66
2023/01/25 06:13:54;;;;;;;28.38;16.98;;;3.60;99.90;;;;;;5094134;28;20486;-67
2023/01/25 06:16:20;;;;;;;27.90;16.38;;;3.70;99.90;;;;;;5092686;28;20423;-66
2023/01/25 06:18:45;;;;;;;23.95;15.20;;;3.60;99.90;;;;;;5093915;28;20350;-66
2023/01/25 06:21:11;;;;;;;28.67;16.50;;;3.70;99.90;;;;;;5092308;28;20077;-67
2023/01/25 06:23:37;;;;;;;23.42;15.32;;;3.70;99.90;;;;;;5094001;28;20457;-66
2023/01/25 06:26:07;;;;;;;25.95;15.57;;;3.70;99.90;;;;;;5092147;28;20035;-67
2023/01/25 06:28:34;;;;;;;26.63;15.65;;;3.70;99.90;;;;;;5094132;28;20024;-66
2023/01/25 06:31:05;;;;;;;27.80;16.13;;;3.70;99.90;;;;;;5094177;28;20039;-66
2023/01/25 06:33:31;;;;;;;23.67;15.45;;;3.70;99.90;;;;;;5095081;28;20047;-66
2023/01/25 06:36:04;;;;;;;23.77;14.35;;;3.70;99.90;;;;;;5093802;28;20115;-66
2023/01/25 06:38:30;;;;;;;18.75;12.80;;;3.70;99.90;;;;;;5093620;28;20024;-66
2023/01/25 06:41:00;;;;;;;24.23;14.35;;;3.70;99.90;;;;;;5092526;28;20101;-66
2023/01/25 06:43:28;;;;;;;24.73;15.05;;;3.70;99.90;;;;;;5093562;28;20495;-65
2023/01/25 06:46:01;;;;;;;23.25;13.82;;;3.60;99.90;;;;;;5093400;28;20032;-65
2023/01/25 06:48:28;;;;;;;22.80;14.63;;;3.70;99.90;;;;;;5093105;28;20036;-66
2023/01/25 06:51:00;;;;;;;25.10;14.70;;;3.70;99.90;;;;;;5093392;28;20081;-66
2023/01/25 06:53:27;;;;;;;22.17;14.20;;;3.70;99.90;;;;;;5093321;28;20060;-66
2023/01/25 06:55:59;;;;;;;24.00;14.93;;;3.70;99.90;;;;;;5093296;28;20024;-66
2023/01/25 06:58:26;;;;;;;26.48;15.45;;;3.70;99.90;;;;;;5093254;28;20024;-66
2023/01/25 07:00:52;;;;;;;24.20;14.20;;;3.70;99.90;;;;;;5093355;28;20028;-66
2023/01/25 07:03:18;;;;;;;24.85;15.52;;;3.70;99.90;;;;;;5092500;28;20027;-67
2023/01/25 07:05:43;;;;;;;24.70;15.20;;;3.60;99.90;;;;;;5072532;28;20362;-66
2023/01/25 07:08:09;;;;;;;23.33;14.13;;;3.70;99.90;;;;;;5072531;28;20035;-67
2023/01/25 07:10:35;;;;;;;26.65;15.85;;;3.70;99.90;;;;;;5072686;28;20035;-67
2023/01/25 07:13:00;;;;;;;25.38;15.30;;;3.70;99.90;;;;;;5072747;28;20033;-70
2023/01/25 07:15:26;;;;;;;22.83;14.75;;;3.70;99.90;;;;;;5076273;28;20121;-67
2023/01/25 07:17:53;;;;;;;25.65;15.43;;;3.70;99.90;;;;;;5075128;28;20086;-66
2023/01/25 07:20:18;;;;;;;26.75;16.40;;;3.70;99.90;;;;;;5072292;28;20081;-67
2023/01/25 07:22:44;;;;;;;25.45;15.85;;;3.70;99.90;;;;;;5072432;28;20025;-66
2023/01/25 07:25:09;;;;;;;23.45;15.05;;;3.70;99.90;;;;;;5072286;28;20033;-66
2023/01/25 07:27:35;;;;;;;27.65;15.45;;;3.70;99.90;;;;;;5072388;28;20107;-66
2023/01/25 07:30:02;;;;;;;28.25;16.80;;;3.70;99.90;;;;;;5072795;28;20465;-68
2023/01/25 07:32:27;;;;;;;26.35;16.73;;;3.70;99.90;;;;;;5072614;28;20017;-66
2023/01/25 07:34:53;;;;;;;29.27;16.85;;;3.70;99.90;;;;;;5072467;28;20046;-66
2023/01/25 07:37:19;;;;;;;25.98;15.48;;;3.70;99.90;;;;;;5072092;28;20030;-66
2023/01/25 07:39:48;;;;;;;28.38;17.35;;;3.70;99.90;;;;;;5071925;28;20044;-67
2023/01/25 07:42:14;;;;;;;27.63;16.55;;;3.70;99.90;;;;;;5071877;28;20090;-67
2023/01/25 07:44:40;;;;;;;32.70;17.38;;;3.70;99.90;;;;;;5072447;28;20033;-66
2023/01/25 07:47:06;;;;;;;27.20;16.50;;;3.70;99.90;;;;;;5072022;28;20484;-66
2023/01/25 07:49:31;;;;;;;27.83;17.05;;;3.80;99.90;;;;;;5072663;28;20027;-66
2023/01/25 07:51:57;;;;;;;26.95;16.45;;;3.70;99.90;;;;;;5072761;28;20454;-66
2023/01/25 07:54:22;;;;;;;28.10;16.85;;;3.80;99.90;;;;;;5076155;28;20438;-67
2023/01/25 07:56:48;;;;;;;27.30;16.70;;;3.70;99.90;;;;;;5076501;28;20082;-66
2023/01/25 07:59:15;;;;;;;26.85;16.58;;;3.70;99.90;;;;;;5075972;28;20381;-66
2023/01/25 08:01:40;;;;;;;30.38;17.20;;;3.70;99.90;;;;;;5076209;28;20492;-66
2023/01/25 08:04:06;;;;;;;28.17;17.33;;;3.80;99.90;;;;;;5078403;28;20024;-67
2023/01/25 08:06:37;;;;;;;29.23;18.13;;;3.70;99.90;;;;;;5076240;28;20495;-67
2023/01/25 08:09:07;;;;;;;34.50;17.50;;;3.80;99.90;;;;;;5076209;28;20035;-67
2023/01/25 08:11:33;;;;;;;26.80;15.43;;;3.80;99.90;;;;;;5075874;28;20029;-67
2023/01/25 08:14:00;;;;;;;29.05;16.02;;;3.80;99.90;;;;;;5074767;28;20035;-66
2023/01/25 08:16:28;;;;;;;27.58;15.95;;;3.80;99.90;;;;;;5075545;28;20041;-67
2023/01/25 08:18:56;;;;;;;33.08;18.55;;;3.80;99.90;;;;;;5075952;28;20032;-67
2023/01/25 08:21:28;;;;;;;26.25;16.38;;;3.80;99.90;;;;;;5075304;28;20477;-67
2023/01/25 08:23:56;;;;;;;29.58;17.65;;;3.80;99.90;;;;;;5076143;28;20052;-67
2023/01/25 08:26:22;;;;;;;26.05;15.48;;;3.80;99.90;;;;;;5075393;28;20035;-67
2023/01/25 08:28:48;;;;;;;28.55;15.25;;;3.80;99.90;;;;;;5075832;28;20112;-66
2023/01/25 08:31:18;;;;;;;23.70;15.52;;;3.80;99.90;;;;;;5075490;28;20446;-67
2023/01/25 08:33:45;;;;;;;24.55;15.93;;;3.80;99.90;;;;;;5075465;28;20532;-66
2023/01/25 08:36:12;;;;;;;26.90;16.02;;;3.80;99.90;;;;;;5075310;28;20028;-67
2023/01/25 08:38:38;;;;;;;25.42;15.60;;;3.80;99.90;;;;;;5075651;28;20067;-65
2023/01/25 08:41:09;;;;;;;27.77;16.27;;;3.80;99.90;;;;;;5076815;28;20619;-66
2023/01/25 08:43:35;;;;;;;27.27;16.33;;;3.80;99.90;;;;;;5077644;28;20028;-66
2023/01/25 08:46:00;;;;;;;24.73;15.35;;;3.80;99.90;;;;;;5074267;28;20039;-67
2023/01/25 08:48:26;;;;;;;27.40;14.75;;;3.90;99.90;;;;;;5075167;28;20052;-67
2023/01/25 08:50:52;;;;;;;25.52;14.75;;;3.90;99.90;;;;;;5077268;28;20017;-67
2023/01/25 08:53:18;;;;;;;21.77;13.68;;;3.80;99.90;;;;;;5074996;28;20021;-67
2023/01/25 08:55:43;;;;;;;24.23;15.00;;;3.80;99.90;;;;;;5074820;28;20452;-67
2023/01/25 08:58:10;;;;;;;23.15;14.30;;;3.80;99.90;;;;;;5074661;28;20067;-69
2023/01/25 09:00:40;;;;;;;24.55;14.43;;;3.80;99.90;;;;;;5075258;28;20104;-67
2023/01/25 09:03:09;;;;;;;20.58;13.20;;;3.80;99.90;;;;;;5074723;28;20032;-66
2023/01/25 09:05:37;;;;;;;23.88;13.40;;;3.80;99.90;;;;;;5075111;28;20029;-67
2023/01/25 09:08:05;;;;;;;22.83;13.82;;;3.70;99.90;;;;;;5075229;28;20077;-65
2023/01/25 09:10:31;;;;;;;22.92;13.65;;;3.80;99.90;;;;;;5074773;28;20464;-67
2023/01/25 09:12:56;;;;;;;21.05;13.07;;;3.70;99.90;;;;;;5074678;28;20028;-66
2023/01/25 09:15:22;;;;;;;22.35;13.43;;;3.80;99.90;;;;;;5074286;28;20103;-67
2023/01/25 09:17:53;;;;;;;20.13;12.77;;;3.80;99.90;;;;;;5073768;28;20025;-67
2023/01/25 09:20:19;;;;;;;23.10;13.50;;;3.80;99.90;;;;;;5074657;28;20122;-67
2023/01/25 09:22:45;;;;;;;26.35;14.75;;;3.80;99.90;;;;;;5074922;28;20047;-66
2023/01/25 09:25:11;;;;;;;22.95;13.95;;;3.70;99.90;;;;;;5074504;28;20028;-73
2023/01/25 09:27:37;;;;;;;21.55;13.40;;;3.70;99.90;;;;;;5075060;28;20064;-66
2023/01/25 09:30:04;;;;;;;19.75;12.65;;;3.70;99.90;;;;;;5074735;28;20052;-66
2023/01/25 09:32:31;;;;;;;21.85;12.57;;;3.80;99.90;;;;;;5074155;28;20032;-66
2023/01/25 09:34:56;;;;;;;21.10;13.43;;;3.80;99.90;;;;;;5074275;28;20400;-66
2023/01/25 09:37:22;;;;;;;21.48;13.27;;;3.80;99.90;;;;;;5073953;28;20024;-67
2023/01/25 09:39:47;;;;;;;26.00;14.02;;;3.80;99.90;;;;;;5076718;28;20045;-66
2023/01/25 09:42:42;;;;;;;20.67;13.27;;;3.80;99.90;;;;;;5074371;28;20060;-67
2023/01/25 09:45:10;;;;;;;20.67;13.50;;;3.80;99.90;;;;;;5074136;28;20036;-67
2023/01/25 09:48:14;;;;;;;22.50;13.55;;;3.80;99.90;;;;;;5073984;28;20024;-67
2023/01/25 09:51:21;;;;;;;19.35;13.43;;;3.80;99.90;;;;;;5075494;28;20028;-66
2023/01/25 09:53:52;;;;;;;23.85;13.80;;;3.90;99.90;;;;;;4993143;28;20033;-67
2023/01/25 09:56:29;;;;;;;23.33;14.15;;;3.90;99.90;;;;;;5063473;28;20129;-67
2023/01/25 09:59:03;;;;;;;21.90;13.55;;;3.80;99.90;;;;;;5074182;28;20028;-67
2023/01/25 10:01:47;;;;;;;23.80;13.82;;;3.80;99.90;;;;;;5075049;28;20103;-67
2023/01/25 10:04:18;;;;;;;24.23;14.45;;;3.70;99.90;;;;;;5075777;28;20473;-67
2023/01/25 10:06:48;;;;;;;23.83;13.45;;;3.70;99.90;;;;;;5075837;28;20072;-68
2023/01/25 10:09:20;;;;;;;23.80;14.43;;;3.70;99.90;;;;;;5076638;28;20032;-67
2023/01/25 10:11:46;;;;;;;26.02;13.00;;;3.80;99.90;;;;;;5054531;28;20477;-67
2023/01/25 10:14:18;;;;;;;22.88;13.80;;;3.80;99.90;;;;;;5053550;28;20040;-67
2023/01/25 10:16:46;;;;;;;21.25;13.48;;;3.80;99.90;;;;;;5053369;28;20056;-67
2023/01/25 10:19:27;;;;;;;23.48;13.18;;;3.80;99.90;;;;;;5054132;28;20029;-67
2023/01/25 10:22:22;;;;;;;21.50;13.05;;;3.80;99.90;;;;;;5053794;28;20032;-67
2023/01/25 10:24:59;;;;;;;25.27;13.70;;;3.80;99.90;;;;;;5053535;28;20108;-66
2023/01/25 10:27:55;;;;;;;22.85;13.90;;;3.80;99.90;;;;;;5053418;28;20029;-67
2023/01/25 10:30:28;;;;;;;22.25;12.52;;;3.80;99.90;;;;;;5051502;28;20386;-66
2023/01/25 10:33:01;;;;;;;22.17;12.77;;;3.80;99.90;;;;;;5053572;28;20085;-67
2023/01/25 10:35:34;;;;;;;18.90;12.00;;;3.80;99.90;;;;;;5052991;28;20112;-66
2023/01/25 10:38:10;;;;;;;24.95;13.10;;;3.80;99.90;;;;;;5053426;28;20025;-67
2023/01/25 10:40:44;;;;;;;18.35;12.30;;;3.80;99.90;;;;;;5052990;28;20104;-66
2023/01/25 10:43:22;;;;;;;23.30;13.85;;;3.90;99.90;;;;;;5053489;28;20047;-67
2023/01/25 10:45:49;;;;;;;19.75;12.82;;;3.80;99.90;;;;;;5053253;28;20415;-67
2023/01/25 10:48:31;;;;;;;22.15;12.88;;;3.80;99.90;;;;;;5053205;28;20083;-67
2023/01/25 10:50:57;;;;;;;21.05;13.60;;;3.80;99.90;;;;;;5053232;28;20021;-67
2023/01/25 10:53:39;;;;;;;23.77;13.93;;;3.80;99.90;;;;;;5051514;28;20032;-67
2023/01/25 10:56:07;;;;;;;24.08;14.02;;;3.90;99.90;;;;;;5065811;28;20029;-67
2023/01/25 10:58:45;;;;;;;23.95;14.18;;;3.90;99.90;;;;;;5072577;28;20025;-67
2023/01/25 11:01:26;;;;;;;22.55;14.18;;;3.90;99.90;;;;;;5072883;28;20033;-67
2023/01/25 11:03:52;;;;;;;23.48;13.98;;;3.90;99.90;;;;;;5071547;28;20111;-66
2023/01/25 11:06:30;;;;;;;22.27;13.52;;;3.90;99.90;;;;;;5072683;28;20039;-67
2023/01/25 11:08:55;;;;;;;21.98;14.23;;;4.00;99.90;;;;;;5072947;28;20051;-66
2023/01/25 11:11:36;;;;;;;24.33;14.38;;;3.90;99.90;;;;;;5072197;28;20107;-67
2023/01/25 11:14:16;;;;;;;23.80;13.77;;;3.90;99.90;;;;;;5072822;28;20078;-67
2023/01/25 11:16:47;;;;;;;26.13;15.27;;;3.90;99.90;;;;;;5072685;28;20033;-67
2023/01/25 11:19:31;;;;;;;;;;;4.00;99.90;;;;;;5073332;28;20089;-67
2023/01/25 11:21:58;;;;;;;24.98;16.10;;;4.00;99.90;;;;;;5072720;28;19904;-67
2023/01/25 11:24:29;;;;;;;24.75;15.23;;;4.00;99.90;;;;;;5072197;28;20028;-67
2023/01/25 11:27:12;;;;;;;28.17;14.77;;;4.00;99.90;;;;;;5072085;28;20489;-66
2023/01/25 11:29:38;;;;;;;23.80;14.63;;;3.90;99.90;;;;;;5072290;28;20029;-67
2023/01/25 11:32:21;;;;;;;28.30;16.27;;;3.90;99.90;;;;;;5072337;28;20025;-67
2023/01/25 11:34:49;;;;;;;28.92;17.30;;;3.90;99.90;;;;;;5072618;28;20035;-67
2023/01/25 11:37:17;;;;;;;29.45;16.25;;;3.90;99.90;;;;;;5072535;28;20119;-66
2023/01/25 11:39:43;;;;;;;28.25;16.48;;;3.90;99.90;;;;;;5071997;28;20050;-67
2023/01/25 11:42:33;;;;;;;28.08;16.30;;;3.90;99.90;;;;;;5072396;28;20116;-67
2023/01/25 11:45:23;;;;;;;26.20;16.52;;;3.90;99.90;;;;;;5072439;28;20469;-67
2023/01/25 11:47:49;;;;;;;29.27;15.73;;;3.90;99.90;;;;;;5072573;28;20025;-67
2023/01/25 11:50:41;;;;;;;30.00;16.30;;;3.90;99.90;;;;;;5072475;28;20039;-67
2023/01/25 11:53:33;;;;;;;25.65;16.90;;;3.90;99.90;;;;;;5072209;28;20029;-66
2023/01/25 11:56:24;;;;;;;26.17;16.35;;;4.00;99.90;;;;;;5072431;28;20091;-67
2023/01/25 11:58:58;;;;;;;31.38;18.48;;;4.00;99.90;;;;;;5072144;28;20028;-66
2023/01/25 12:01:33;;;;;;;30.92;18.38;;;4.00;99.90;;;;;;5074225;28;20035;-66
2023/01/25 12:04:37;;;;;;;30.80;17.75;;;4.00;99.90;;;;;;5072481;28;20029;-67
2023/01/25 12:07:06;;;;;;;29.52;17.35;;;4.00;99.90;;;;;;5047976;28;20084;-67
2023/01/25 12:09:50;;;;;;;30.92;18.30;;;4.00;99.90;;;;;;5071640;28;20021;-67
2023/01/25 12:12:19;;;;;;;27.55;16.92;;;4.00;99.90;;;;;;5074494;28;20029;-67
2023/01/25 12:15:14;;;;;;;28.08;17.63;;;4.00;99.90;;;;;;5071929;28;20137;-67
2023/01/25 12:17:57;;;;;;;27.40;17.10;;;4.00;99.90;;;;;;5071238;28;20033;-67
2023/01/25 12:20:41;;;;;;;25.10;16.10;;;4.00;99.90;;;;;;5072007;28;20033;-66
2023/01/25 12:23:22;;;;;;;30.05;18.33;;;4.00;99.90;;;;;;5071893;28;20492;-66
2023/01/25 12:26:05;;;;;;;27.63;16.45;;;3.90;99.90;;;;;;5071314;28;20032;-66
2023/01/25 12:28:35;;;;;;;27.45;17.05;;;3.90;99.90;;;;;;5071423;28;20033;-68
2023/01/25 12:31:09;;;;;;;26.88;16.98;;;3.90;99.90;;;;;;5070571;28;20036;-67
2023/01/25 12:33:46;;;;;;;26.13;15.90;;;3.90;99.90;;;;;;5070530;28;20028;-66
2023/01/25 12:36:18;;;;;;;27.77;16.30;;;3.90;99.90;;;;;;5071974;28;20033;-67
2023/01/25 12:38:53;;;;;;;25.42;16.13;;;3.90;99.90;;;;;;5073092;28;20047;-68
2023/01/25 12:41:43;;;;;;;24.30;15.55;;;4.00;99.90;;;;;;5076014;28;20052;-66
2023/01/25 12:44:15;;;;;;;29.48;17.52;;;3.90;99.90;;;;;;5075633;28;20020;-67
2023/01/25 12:46:47;;;;;;;27.90;16.85;;;3.90;99.90;;;;;;5075200;28;20038;-67
2023/01/25 12:49:29;;;;;;;23.60;16.02;;;4.00;99.90;;;;;;5075935;28;20100;-67
2023/01/25 12:51:59;;;;;;;24.90;16.70;;;4.00;99.90;;;;;;5076216;28;20468;-67